createdAt,value
2022-12-03T00:07:18.683Z,2.6
2022-12-03T00:21:56.053Z,2.6
2022-12-03T00:36:29.322Z,2.8
2022-12-03T00:50:56.446Z,2.7
2022-12-03T01:05:35.624Z,2.5
2022-12-03T01:20:16.479Z,2.7
2022-12-03T01:34:53.469Z,2.7
2022-12-03T01:49:30.522Z,2.6
2022-12-03T02:04:05.538Z,2.6
2022-12-03T02:18:30.208Z,2.6
2022-12-03T02:47:38.420Z,2.5
2022-12-03T03:02:25.615Z,2.4
2022-12-03T03:31:35.628Z,2.6
2022-12-03T03:46:16.422Z,2.3
2022-12-03T04:00:53.584Z,2.4
2022-12-03T04:15:22.093Z,2.4
2022-12-03T04:30:03.179Z,2.4
2022-12-03T04:59:04.797Z,2.3
2022-12-03T05:13:37.070Z,2.4
2022-12-03T05:28:07.476Z,2.3
2022-12-03T05:42:37.106Z,2.3
2022-12-03T05:57:13.477Z,2.4
2022-12-03T06:11:46.896Z,2.3
2022-12-03T06:26:16.717Z,2.4
2022-12-03T06:40:57.880Z,2.5
2022-12-03T06:55:26.075Z,2.4
2022-12-03T07:10:01.473Z,2.5
2022-12-03T07:39:03.343Z,2.2
2022-12-03T07:53:35.075Z,2.3
2022-12-03T08:08:06.665Z,2.3
2022-12-03T08:22:39.520Z,2.4
2022-12-03T08:37:10.376Z,2.4
2022-12-03T08:51:43.486Z,2.4
2022-12-03T09:06:20.981Z,2.6
2022-12-03T09:20:53.717Z,2.6
2022-12-03T09:35:26.038Z,2.8
2022-12-03T09:49:59.608Z,2.6
2022-12-03T10:04:33.178Z,2.8
2022-12-03T10:19:06.031Z,2.9
2022-12-03T10:33:33.562Z,3
2022-12-03T10:48:03.529Z,3
2022-12-03T11:02:34.038Z,2.7
2022-12-03T11:17:00.693Z,2.9
2022-12-03T11:31:33.704Z,3.1
2022-12-03T11:46:05.328Z,3.3
2022-12-03T12:00:36.366Z,3.2
2022-12-03T12:15:07.707Z,3.4
2022-12-03T12:29:40.224Z,3.4
2022-12-03T12:44:16.547Z,3.4
2022-12-03T12:58:49.231Z,3.2
2022-12-03T13:13:13.510Z,3.2
2022-12-03T13:27:44.619Z,3.2
2022-12-03T13:42:15.298Z,3.3
2022-12-03T13:56:45.932Z,3.4
2022-12-03T14:11:19.311Z,3.3
2022-12-03T14:25:51.194Z,3.1
2022-12-03T14:40:22.431Z,3.3
2022-12-03T14:54:52.835Z,3.3
2022-12-03T15:09:22.651Z,3.1
2022-12-03T15:23:53.345Z,3.2
2022-12-03T15:38:25.048Z,3.1
2022-12-03T15:52:56.386Z,3.1
2022-12-03T16:07:27.560Z,3
2022-12-03T16:21:59.806Z,3.2
2022-12-03T16:36:36.434Z,2.8
2022-12-03T16:51:07.127Z,3
2022-12-03T17:05:39.227Z,2.8
2022-12-03T17:20:09.728Z,2.9
2022-12-03T17:34:41.706Z,2.7
2022-12-03T17:49:11.076Z,2.7
2022-12-03T18:03:45.671Z,2.5
2022-12-03T18:18:28.395Z,2.9
2022-12-03T18:32:58.750Z,2.8
2022-12-03T18:47:25.642Z,2.7
2022-12-03T19:01:57.261Z,2.9
2022-12-03T19:16:27.916Z,2.8
2022-12-03T19:30:59.355Z,2.7
2022-12-03T19:45:30.950Z,2.8
2022-12-03T20:00:01.799Z,2.8
2022-12-03T20:14:31.645Z,2.8
2022-12-03T20:29:02.963Z,2.9
2022-12-03T20:43:33.289Z,2.7
2022-12-03T20:58:04.721Z,2.8
2022-12-03T21:12:37.659Z,2.7
2022-12-03T21:27:09.501Z,2.5
2022-12-03T21:41:40.676Z,2.7
2022-12-03T21:56:46.150Z,2.8
2022-12-03T22:11:16.831Z,2.7
2022-12-03T22:25:48.013Z,2.6
2022-12-03T22:40:19.860Z,2.6
2022-12-03T22:54:50.813Z,2.6
2022-12-03T23:09:23.538Z,2.5
2022-12-03T23:23:55.099Z,2.6
2022-12-03T23:38:28.720Z,2.4
2022-12-03T23:52:57.870Z,2.5
